createdAt,value
2018-07-11T00:00:23.046Z,3.20
2018-07-11T00:01:23.078Z,3.50
2018-07-11T00:02:23.112Z,3.30
2018-07-11T00:03:23.147Z,3.70
2018-07-11T00:04:23.182Z,4.50
2018-07-11T00:05:23.214Z,4.00
2018-07-11T00:06:23.250Z,3.90
2018-07-11T00:07:23.283Z,4.10
2018-07-11T00:08:23.315Z,2.50
2018-07-11T00:09:23.349Z,5.80
2018-07-11T00:10:23.384Z,3.40
2018-07-11T00:11:23.419Z,2.50
2018-07-11T00:12:23.454Z,3.30
2018-07-11T00:13:23.486Z,3.30
2018-07-11T00:14:23.520Z,2.90
2018-07-11T00:15:23.553Z,4.90
2018-07-11T00:16:23.597Z,4.40
2018-07-11T00:17:23.641Z,2.60
2018-07-11T00:18:23.661Z,3.30
2018-07-11T00:19:23.688Z,3.00
2018-07-11T00:20:23.719Z,3.20
2018-07-11T00:21:23.757Z,2.60
2018-07-11T00:22:23.788Z,3.30
2018-07-11T00:23:23.829Z,2.60
2018-07-11T00:24:23.856Z,3.50
2018-07-11T00:25:23.933Z,2.50
2018-07-11T00:26:23.924Z,2.80
2018-07-11T00:27:23.958Z,3.30
2018-07-11T00:28:23.991Z,2.80
2018-07-11T00:29:24.022Z,2.30
2018-07-11T00:30:24.061Z,2.30
2018-07-11T00:31:24.093Z,2.50
2018-07-11T00:32:24.125Z,2.10
2018-07-11T00:33:24.160Z,2.90
2018-07-11T00:34:24.195Z,3.10
2018-07-11T00:35:24.221Z,2.30
2018-07-11T00:36:24.262Z,3.10
2018-07-11T00:37:24.339Z,2.20
2018-07-11T00:38:24.332Z,2.70
2018-07-11T00:39:24.382Z,2.80
2018-07-11T00:40:24.394Z,2.90
2018-07-11T00:41:24.542Z,3.20
2018-07-11T00:42:24.465Z,2.70
2018-07-11T00:43:24.500Z,3.70
2018-07-11T00:44:24.534Z,3.90
2018-07-11T00:45:24.561Z,3.50
2018-07-11T00:46:24.629Z,3.50
2018-07-11T00:47:24.732Z,3.90
2018-07-11T00:48:24.667Z,3.40
2018-07-11T00:49:24.701Z,3.10
2018-07-11T00:50:24.744Z,4.50
2018-07-11T00:51:24.768Z,4.30
2018-07-11T00:52:24.803Z,3.30
2018-07-11T00:53:24.837Z,3.20
2018-07-11T00:54:24.876Z,3.90
2018-07-11T00:55:24.905Z,3.10
2018-07-11T00:56:24.939Z,2.70
2018-07-11T00:57:24.972Z,2.90
2018-07-11T00:58:25.013Z,3.20
2018-07-11T00:59:25.043Z,2.60
2018-07-11T01:00:25.074Z,3.60
2018-07-11T01:01:25.107Z,4.60
2018-07-11T01:02:25.141Z,3.60
2018-07-11T01:03:25.177Z,2.30
2018-07-11T01:04:25.208Z,3.50
2018-07-11T01:05:25.241Z,3.30
2018-07-11T01:06:25.303Z,3.00
2018-07-11T01:07:25.311Z,3.10
2018-07-11T01:08:25.346Z,4.00
2018-07-11T01:09:25.375Z,3.60
2018-07-11T01:10:25.415Z,2.40
2018-07-11T01:11:25.445Z,2.70
2018-07-11T01:12:25.478Z,3.40
2018-07-11T01:13:25.502Z,5.50
2018-07-11T01:14:25.542Z,3.50
2018-07-11T01:15:25.579Z,5.20
2018-07-11T01:16:25.615Z,3.40
2018-07-11T01:17:25.647Z,4.50
2018-07-11T01:18:25.682Z,4.00
2018-07-11T01:19:25.715Z,2.50
2018-07-11T01:20:25.749Z,3.80
2018-07-11T01:21:25.784Z,5.10
2018-07-11T01:22:25.821Z,4.20
2018-07-11T01:23:25.848Z,3.80
2018-07-11T01:24:25.883Z,3.40
2018-07-11T01:25:25.916Z,5.40
2018-07-11T01:26:25.949Z,5.00
2018-07-11T01:27:25.986Z,5.30
2018-07-11T01:28:26.017Z,4.10
2018-07-11T01:29:26.048Z,3.80
2018-07-11T01:30:26.085Z,4.40
2018-07-11T01:31:26.117Z,4.10
2018-07-11T01:32:26.156Z,3.30
2018-07-11T01:33:26.186Z,3.30
2018-07-11T01:34:26.225Z,3.20
2018-07-11T01:35:26.251Z,4.70
2018-07-11T01:36:26.286Z,3.80
2018-07-11T01:37:26.321Z,2.70
2018-07-11T01:38:26.353Z,2.90
2018-07-11T01:39:26.387Z,5.20
2018-07-11T01:40:26.429Z,4.80
2018-07-11T01:41:26.455Z,6.70
2018-07-11T01:42:26.487Z,3.90
2018-07-11T01:43:26.533Z,5.30
2018-07-11T01:44:26.556Z,4.00
2018-07-11T01:45:26.590Z,5.30
2018-07-11T01:46:26.635Z,3.70
2018-07-11T01:47:26.656Z,2.90
2018-07-11T01:48:26.690Z,4.20
2018-07-11T01:49:26.726Z,4.40
2018-07-11T01:50:26.761Z,4.10
2018-07-11T01:51:26.814Z,5.00
2018-07-11T01:52:26.827Z,5.20
2018-07-11T01:53:26.857Z,5.00
2018-07-11T01:54:26.891Z,3.60
2018-07-11T01:55:26.934Z,3.30
2018-07-11T01:56:26.955Z,3.10
2018-07-11T01:57:26.991Z,3.90
2018-07-11T01:58:27.024Z,4.30
2018-07-11T01:59:27.066Z,4.00
2018-07-11T02:00:27.098Z,3.60
2018-07-11T02:01:27.127Z,3.30
2018-07-11T02:02:27.161Z,3.70
2018-07-11T02:03:27.195Z,3.10
2018-07-11T02:04:27.230Z,2.90
2018-07-11T02:05:27.272Z,3.30
2018-07-11T02:06:27.294Z,3.60
2018-07-11T02:07:27.329Z,3.00
2018-07-11T02:08:27.363Z,2.80
2018-07-11T02:09:27.396Z,2.90
2018-07-11T02:10:27.439Z,3.20
2018-07-11T02:11:27.462Z,3.90
2018-07-11T02:12:27.497Z,3.30
2018-07-11T02:13:27.531Z,3.30
2018-07-11T02:14:27.567Z,3.60
2018-07-11T02:15:27.598Z,2.90
2018-07-11T02:16:27.634Z,3.30
2018-07-11T02:17:27.663Z,3.60
2018-07-11T02:18:27.696Z,3.80
2018-07-11T02:19:27.734Z,3.00
2018-07-11T02:20:27.764Z,2.90
2018-07-11T02:21:27.800Z,2.80
2018-07-11T02:22:27.835Z,3.10
2018-07-11T02:23:27.869Z,2.60
2018-07-11T02:24:27.899Z,2.40
2018-07-11T02:25:27.938Z,2.90
2018-07-11T02:26:27.966Z,4.20
2018-07-11T02:27:28.003Z,4.20
2018-07-11T02:28:28.043Z,3.60
2018-07-11T02:29:28.067Z,3.80
2018-07-11T02:30:28.100Z,2.40
2018-07-11T02:31:28.135Z,3.80
2018-07-11T02:32:28.172Z,4.00
2018-07-11T02:33:28.203Z,3.70
2018-07-11T02:34:28.253Z,2.50
2018-07-11T02:35:28.273Z,3.00
2018-07-11T02:36:28.302Z,3.50
2018-07-11T02:37:28.337Z,3.00
2018-07-11T02:38:28.371Z,2.80
2018-07-11T02:39:28.404Z,3.20
2018-07-11T02:40:28.438Z,2.90
2018-07-11T02:41:28.470Z,3.10
2018-07-11T02:42:28.504Z,2.40
2018-07-11T02:43:28.595Z,2.60
2018-07-11T02:44:28.572Z,2.70
2018-07-11T02:45:28.604Z,2.60
2018-07-11T02:46:28.640Z,2.70
2018-07-11T02:47:28.674Z,2.60
2018-07-11T02:48:28.706Z,2.60
2018-07-11T02:49:28.739Z,3.50
2018-07-11T02:50:28.777Z,2.80
2018-07-11T02:51:28.810Z,2.90
2018-07-11T02:52:28.841Z,3.40
2018-07-11T02:53:28.868Z,2.70
2018-07-11T02:54:28.907Z,2.90
2018-07-11T02:55:28.953Z,3.20
2018-07-11T02:56:28.974Z,3.60
2018-07-11T02:57:29.003Z,2.60
2018-07-11T02:58:29.044Z,3.10
2018-07-11T02:59:29.075Z,3.50
2018-07-11T03:00:29.111Z,3.70
2018-07-11T03:01:29.141Z,3.40
2018-07-11T03:02:29.183Z,7.00
2018-07-11T03:03:29.207Z,3.70
2018-07-11T03:04:29.247Z,3.60
2018-07-11T03:05:29.276Z,4.20
2018-07-11T03:06:29.309Z,4.30
2018-07-11T03:07:29.346Z,3.80
2018-07-11T03:08:29.375Z,4.00
2018-07-11T03:09:29.409Z,2.90
2018-07-11T03:10:29.446Z,3.20
2018-07-11T03:11:29.476Z,3.00
2018-07-11T03:12:29.508Z,3.90
2018-07-11T03:13:29.547Z,2.90
2018-07-11T03:14:29.580Z,4.50
2018-07-11T03:15:29.609Z,3.10
2018-07-11T03:16:29.645Z,5.90
2018-07-11T03:17:29.677Z,4.00
2018-07-11T03:18:29.710Z,3.90
2018-07-11T03:19:29.747Z,3.10
2018-07-11T03:20:29.777Z,3.00
2018-07-11T03:21:29.815Z,3.50
2018-07-11T03:22:29.843Z,2.80
2018-07-11T03:23:29.878Z,3.20
2018-07-11T03:24:29.910Z,3.50
2018-07-11T03:25:29.944Z,3.70
2018-07-11T03:26:29.979Z,3.30
2018-07-11T03:27:30.016Z,4.50
2018-07-11T03:28:30.045Z,2.90
2018-07-11T03:29:30.078Z,3.10
2018-07-11T03:30:30.112Z,3.60
2018-07-11T03:31:30.153Z,3.40
2018-07-11T03:32:30.216Z,2.80
2018-07-11T03:33:30.213Z,5.10
2018-07-11T03:34:30.247Z,6.00
2018-07-11T03:35:30.278Z,3.80
2018-07-11T03:36:30.314Z,5.10
2018-07-11T03:37:30.355Z,4.40
2018-07-11T03:38:30.378Z,3.80
2018-07-11T03:39:30.413Z,4.10
2018-07-11T03:40:30.445Z,3.30
2018-07-11T03:41:30.479Z,3.90
2018-07-11T03:42:30.513Z,4.50
2018-07-11T03:43:30.572Z,2.90
2018-07-11T03:44:30.584Z,5.50
2018-07-11T03:45:30.615Z,4.50
2018-07-11T03:46:30.659Z,4.80
2018-07-11T03:47:30.693Z,3.80
2018-07-11T03:48:30.714Z,5.20
2018-07-11T03:49:30.749Z,5.20
2018-07-11T03:50:30.780Z,4.80
2018-07-11T03:51:30.814Z,4.90
2018-07-11T03:52:30.848Z,4.90
2018-07-11T03:53:30.885Z,5.60
2018-07-11T03:54:30.916Z,4.30
2018-07-11T03:55:30.950Z,4.00
2018-07-11T03:56:30.982Z,4.50
2018-07-11T03:57:31.016Z,7.60
2018-07-11T03:58:31.048Z,3.90
2018-07-11T03:59:31.082Z,3.90
2018-07-11T04:00:31.120Z,3.80
2018-07-11T04:01:31.148Z,3.90
2018-07-11T04:02:31.180Z,5.80
2018-07-11T04:03:31.220Z,5.40
2018-07-11T04:04:31.248Z,4.10
2018-07-11T04:05:31.283Z,5.20
2018-07-11T04:06:31.316Z,3.60
2018-07-11T04:07:31.349Z,6.20
2018-07-11T04:08:31.383Z,4.30
2018-07-11T04:09:31.419Z,5.90
2018-07-11T04:10:31.450Z,5.70
2018-07-11T04:11:31.485Z,5.20
2018-07-11T04:12:31.516Z,6.40
2018-07-11T04:13:31.556Z,6.30
2018-07-11T04:14:31.584Z,6.10
2018-07-11T04:15:31.620Z,4.80
2018-07-11T04:16:31.649Z,4.00
2018-07-11T04:17:31.684Z,3.50
2018-07-11T04:18:31.721Z,4.80
2018-07-11T04:19:31.756Z,3.80
2018-07-11T04:20:31.783Z,4.00
2018-07-11T04:21:31.821Z,3.40
2018-07-11T04:22:31.855Z,3.80
2018-07-11T04:23:31.906Z,4.10
2018-07-11T04:24:31.917Z,3.80
2018-07-11T04:25:31.951Z,3.60
2018-07-11T04:26:32.027Z,4.00
2018-07-11T04:27:32.020Z,2.80
2018-07-11T04:28:32.051Z,4.80
2018-07-11T04:29:32.086Z,4.50
2018-07-11T04:30:32.118Z,3.90
2018-07-11T04:31:32.153Z,7.20
2018-07-11T04:32:32.193Z,4.40
2018-07-11T04:33:32.283Z,6.10
2018-07-11T04:34:32.324Z,5.50
2018-07-11T04:35:32.288Z,6.40
2018-07-11T04:36:32.319Z,6.00
2018-07-11T04:37:32.349Z,5.30
2018-07-11T04:38:32.388Z,2.70
2018-07-11T04:39:32.436Z,5.80
2018-07-11T04:40:32.457Z,4.60
2018-07-11T04:41:32.489Z,5.70
2018-07-11T04:42:32.590Z,5.50
2018-07-11T04:43:32.559Z,4.20
2018-07-11T04:44:32.585Z,3.50
2018-07-11T04:45:32.624Z,6.30
2018-07-11T04:46:32.656Z,5.70
2018-07-11T04:47:32.690Z,4.30
2018-07-11T04:48:32.723Z,6.20
2018-07-11T04:49:32.757Z,6.10
2018-07-11T04:50:32.790Z,7.10
2018-07-11T04:51:32.824Z,5.50
2018-07-11T04:52:32.866Z,5.50
2018-07-11T04:53:32.890Z,7.40
2018-07-11T04:54:32.926Z,4.00
2018-07-11T04:55:32.963Z,5.80
2018-07-11T04:56:32.992Z,10.30
2018-07-11T04:57:33.026Z,3.70
2018-07-11T04:58:33.061Z,5.80
2018-07-11T04:59:33.106Z,4.90
2018-07-11T05:00:33.125Z,5.60
2018-07-11T05:01:33.161Z,5.90
2018-07-11T05:02:33.198Z,8.20
2018-07-11T05:03:33.231Z,5.00
2018-07-11T05:04:33.262Z,5.60
2018-07-11T05:05:33.295Z,3.50
2018-07-11T05:06:33.328Z,5.50
2018-07-11T05:07:33.361Z,3.50
2018-07-11T05:08:33.396Z,4.50
2018-07-11T05:09:33.431Z,4.40
2018-07-11T05:10:33.464Z,4.70
2018-07-11T05:11:33.495Z,4.50
2018-07-11T05:12:33.533Z,5.30
2018-07-11T05:13:33.564Z,5.90
2018-07-11T05:14:33.604Z,6.20
2018-07-11T05:15:33.629Z,5.10
2018-07-11T05:16:33.669Z,3.70
2018-07-11T05:17:33.698Z,5.20
2018-07-11T05:18:33.737Z,4.20
2018-07-11T05:19:33.768Z,7.60
2018-07-11T05:20:33.799Z,5.50
2018-07-11T05:21:33.832Z,6.10
2018-07-11T05:22:33.866Z,4.80
2018-07-11T05:23:33.902Z,6.80
2018-07-11T05:24:33.933Z,6.10
2018-07-11T05:25:33.971Z,3.10
2018-07-11T05:26:34.002Z,6.00
2018-07-11T05:27:34.100Z,3.80
2018-07-11T05:28:34.070Z,5.70
2018-07-11T05:29:34.103Z,7.80
2018-07-11T05:30:34.142Z,5.00
2018-07-11T05:31:34.171Z,6.50
2018-07-11T05:32:34.203Z,4.30
2018-07-11T05:33:34.273Z,4.10
2018-07-11T05:34:34.268Z,3.70
2018-07-11T05:35:34.309Z,4.80
2018-07-11T05:36:34.339Z,6.20
2018-07-11T05:37:34.381Z,3.90
2018-07-11T05:38:34.403Z,4.20
2018-07-11T05:39:34.440Z,5.80
2018-07-11T05:40:34.475Z,5.00
2018-07-11T05:41:34.508Z,5.10
2018-07-11T05:42:34.627Z,8.20
2018-07-11T05:43:34.575Z,4.40
2018-07-11T05:44:34.607Z,5.40
2018-07-11T05:45:34.642Z,4.60
2018-07-11T05:46:34.679Z,4.60
2018-07-11T05:47:34.720Z,4.50
2018-07-11T05:48:34.743Z,6.40
2018-07-11T05:49:34.774Z,4.70
2018-07-11T05:50:34.811Z,4.60
2018-07-11T05:51:34.845Z,6.30
2018-07-11T05:52:34.877Z,3.80
2018-07-11T05:53:34.936Z,3.70
2018-07-11T05:54:34.950Z,3.40
2018-07-11T05:55:34.978Z,3.40
2018-07-11T05:56:35.014Z,4.90
2018-07-11T05:57:35.046Z,5.10
2018-07-11T05:58:35.079Z,6.30
2018-07-11T05:59:35.113Z,11.00
2018-07-11T06:00:35.148Z,6.00
2018-07-11T06:01:35.182Z,6.80
2018-07-11T06:02:35.273Z,7.30
2018-07-11T06:03:35.251Z,8.70
2018-07-11T06:04:35.283Z,7.40
2018-07-11T06:05:35.318Z,6.90
2018-07-11T06:06:35.349Z,6.70
2018-07-11T06:07:35.383Z,9.70
2018-07-11T06:08:35.415Z,6.90
2018-07-11T06:09:35.469Z,8.10
2018-07-11T06:10:35.484Z,6.40
2018-07-11T06:11:35.525Z,8.20
2018-07-11T06:12:35.552Z,10.20
2018-07-11T06:13:35.629Z,7.30
2018-07-11T06:14:35.618Z,9.10
2018-07-11T06:15:35.653Z,9.10
2018-07-11T06:16:35.685Z,13.60
2018-07-11T06:17:35.786Z,42.70
2018-07-11T06:18:35.756Z,31.10
2018-07-11T06:19:35.801Z,32.30
2018-07-11T06:20:35.877Z,31.30
2018-07-11T06:21:35.854Z,31.50
